Olney Springs, Colorado
Current Conditions -  °F | °C
As of 9:53 PM on Monday 20 Oct 2014 (Local Time) from KLHX Reporting Station
Clear Clear  
Wind Chill: 56°   Ceiling: Unl
Heat Index: 56°   Visibility: 10mi
Dew Point: 43°   Wind: 7mph
Humidity: 62%   Direction: 120°ESE
Pressure: 30.12"   Gusts: NA
Location:  38.17°N, 103.94°W
Report Text: KLHX 210353Z AUTO 12006KT 10SM CLR 13/06 A3012 RMK AO2 SLP165 T01330061
Loading
Personal Weather Stations






























Interactive Weather Map
Tropical Storm Tracking
New forecast layout! Learn more

10-Day Weather Forecast

Advertisements
Track Severe Weather on mobile